Time;durP1;ratioP1;P1;durP2;ratioP2;P2;SDS_P1;SDS_P2;PMS_P1;PMS_P2;Temp;Humidity;BMP_temperature;BMP_pressure;BME280_temperature;BME280_humidity;BME280_pressure;Samples;Min_cycle;Max_cycle;Signal;HPM_P1;HPM_P2
2022/07/12 00:02:07;;;;;;;2.13;1.92;;;12.10;99.90;;;;;;5074762;28;20135;-76
2022/07/12 00:04:33;;;;;;;3.25;2.25;;;12.10;99.90;;;;;;5076486;28;20346;-76
2022/07/12 00:06:59;;;;;;;2.63;2.10;;;12.10;99.90;;;;;;5075171;28;20592;-76
2022/07/12 00:09:24;;;;;;;4.85;2.55;;;12.00;99.90;;;;;;5076714;28;20028;-76
2022/07/12 00:11:50;;;;;;;3.58;2.17;;;12.00;99.90;;;;;;5074835;28;20077;-76
2022/07/12 00:14:16;;;;;;;4.85;2.67;;;11.90;99.90;;;;;;5075018;28;20025;-76
2022/07/12 00:16:41;;;;;;;2.65;2.45;;;11.90;99.90;;;;;;5076063;28;20031;-76
2022/07/12 00:19:08;;;;;;;2.40;2.03;;;11.90;99.90;;;;;;5076509;28;20024;-76
2022/07/12 00:21:34;;;;;;;3.03;2.30;;;11.90;99.90;;;;;;5074863;28;20121;-76
2022/07/12 00:24:00;;;;;;;3.72;2.42;;;11.90;99.90;;;;;;5076140;28;20029;-76
2022/07/12 00:26:25;;;;;;;4.97;1.85;;;11.90;99.90;;;;;;5076107;28;20445;-76
2022/07/12 00:28:51;;;;;;;5.18;2.08;;;11.90;99.90;;;;;;5074728;28;20029;-76
2022/07/12 00:31:17;;;;;;;3.63;2.00;;;11.90;99.90;;;;;;5076274;28;20033;-76
2022/07/12 00:33:42;;;;;;;2.38;2.20;;;11.90;99.90;;;;;;5074394;28;20048;-76
2022/07/12 00:36:08;;;;;;;7.63;2.08;;;11.90;99.90;;;;;;5076124;28;20100;-76
2022/07/12 00:38:34;;;;;;;4.88;2.22;;;11.90;99.90;;;;;;5075847;28;20078;-76
2022/07/12 00:41:00;;;;;;;2.30;2.10;;;11.90;99.90;;;;;;5075724;28;20020;-76
2022/07/12 00:43:26;;;;;;;2.20;2.00;;;11.90;99.90;;;;;;5074181;28;20024;-76
2022/07/12 00:45:51;;;;;;;3.35;2.10;;;11.90;99.90;;;;;;5075693;28;20027;-76
2022/07/12 00:48:18;;;;;;;3.20;2.00;;;11.90;99.90;;;;;;5074104;28;20028;-76
2022/07/12 00:50:45;;;;;;;3.40;1.75;;;11.90;99.90;;;;;;5075667;28;20032;-76
2022/07/12 00:53:13;;;;;;;3.10;2.05;;;11.90;99.90;;;;;;5075555;28;20031;-76
2022/07/12 00:55:39;;;;;;;3.58;2.05;;;11.90;99.90;;;;;;5075210;28;20052;-76
2022/07/12 00:58:04;;;;;;;4.22;2.28;;;11.80;99.90;;;;;;5075866;28;20068;-76
2022/07/12 01:00:30;;;;;;;3.28;2.15;;;11.80;99.90;;;;;;5075344;28;20041;-76
2022/07/12 01:02:57;;;;;;;3.20;2.40;;;11.80;99.90;;;;;;5075676;28;20033;-76
2022/07/12 01:05:24;;;;;;;2.20;2.10;;;11.70;99.90;;;;;;5075335;28;20024;-76
2022/07/12 01:07:50;;;;;;;3.35;2.10;;;11.70;99.90;;;;;;5075255;28;20020;-76
2022/07/12 01:10:16;;;;;;;3.08;2.42;;;11.60;99.90;;;;;;5075177;28;20060;-76
2022/07/12 01:12:43;;;;;;;2.25;2.05;;;11.60;99.90;;;;;;5074325;28;20128;-76
2022/07/12 01:15:09;;;;;;;4.10;2.25;;;11.50;99.90;;;;;;5075379;28;20025;-76
2022/07/12 01:17:36;;;;;;;2.70;2.05;;;11.50;99.90;;;;;;5074530;28;20020;-76
2022/07/12 01:20:04;;;;;;;3.13;1.90;;;11.50;99.90;;;;;;5073742;28;20115;-76
2022/07/12 01:22:32;;;;;;;2.25;2.00;;;11.40;99.90;;;;;;5074271;28;20423;-76
2022/07/12 01:24:59;;;;;;;3.30;2.47;;;11.40;99.90;;;;;;5074908;28;20157;-76
2022/07/12 01:27:24;;;;;;;4.30;2.30;;;11.40;99.90;;;;;;5074878;28;20047;-76
2022/07/12 01:29:50;;;;;;;5.03;2.40;;;11.40;99.90;;;;;;5073820;28;20407;-76
2022/07/12 01:32:25;;;;;;;4.15;2.47;;;11.30;99.90;;;;;;5073516;28;20047;-76
2022/07/12 01:34:57;;;;;;;5.20;2.78;;;11.30;99.90;;;;;;5074799;28;20460;-76
2022/07/12 01:37:25;;;;;;;2.03;1.83;;;11.30;99.90;;;;;;5074666;28;20047;-76
2022/07/12 01:39:56;;;;;;;3.63;2.30;;;11.30;99.90;;;;;;5073706;28;20029;-76
2022/07/12 01:42:24;;;;;;;2.50;2.15;;;11.30;99.90;;;;;;5073302;28;20029;-76
2022/07/12 01:44:51;;;;;;;5.57;2.33;;;11.30;99.90;;;;;;5074584;28;20032;-76
2022/07/12 01:47:26;;;;;;;2.85;2.20;;;11.20;99.90;;;;;;5073184;28;20082;-76
2022/07/12 01:49:51;;;;;;;6.55;2.60;;;11.20;99.90;;;;;;5073351;28;20448;-76
2022/07/12 01:52:18;;;;;;;2.95;2.17;;;11.20;99.90;;;;;;5074245;28;20052;-76
2022/07/12 01:54:45;;;;;;;4.05;2.28;;;11.20;99.90;;;;;;5074325;28;20021;-76
2022/07/12 01:57:10;;;;;;;3.08;2.15;;;11.10;99.90;;;;;;5074533;28;20016;-76
2022/07/12 01:59:36;;;;;;;2.35;2.15;;;11.10;99.90;;;;;;5074321;28;20027;-76
2022/07/12 02:02:03;;;;;;;2.72;2.22;;;11.10;99.90;;;;;;5074282;28;20054;-76
2022/07/12 02:04:29;;;;;;;2.30;2.10;;;11.10;99.90;;;;;;5072937;28;20132;-76
2022/07/12 02:06:56;;;;;;;4.30;2.38;;;11.10;99.90;;;;;;5074492;28;20054;-76
2022/07/12 02:09:22;;;;;;;2.83;2.30;;;11.10;99.90;;;;;;5074191;28;20103;-76
2022/07/12 02:11:48;;;;;;;3.15;2.50;;;11.10;99.90;;;;;;5074121;28;20071;-76
2022/07/12 02:14:14;;;;;;;2.70;2.38;;;11.10;99.90;;;;;;5073148;28;20025;-76
2022/07/12 02:16:41;;;;;;;2.75;2.55;;;11.10;99.90;;;;;;5072800;28;20056;-76
2022/07/12 02:19:07;;;;;;;10.02;3.78;;;11.10;99.90;;;;;;5074203;28;20029;-76
2022/07/12 02:21:33;;;;;;;3.15;2.60;;;11.10;99.90;;;;;;5072666;28;20433;-76
2022/07/12 02:23:59;;;;;;;3.80;2.50;;;11.10;99.90;;;;;;5074132;28;20070;-76
2022/07/12 02:26:25;;;;;;;2.85;2.63;;;11.20;99.90;;;;;;5073977;28;20097;-76
2022/07/12 02:28:51;;;;;;;2.72;1.90;;;11.20;99.90;;;;;;5073923;28;20031;-76
2022/07/12 02:31:17;;;;;;;4.28;2.55;;;11.20;99.90;;;;;;5074109;28;20036;-76
2022/07/12 02:33:42;;;;;;;3.30;2.10;;;11.20;99.90;;;;;;5074140;28;20062;-76
2022/07/12 02:36:08;;;;;;;2.15;1.95;;;11.20;99.90;;;;;;5073804;28;20021;-76
2022/07/12 02:38:34;;;;;;;2.38;2.15;;;11.10;99.90;;;;;;5073792;28;20078;-76
2022/07/12 02:40:59;;;;;;;2.33;2.15;;;11.10;99.90;;;;;;5072354;28;20597;-76
2022/07/12 02:43:30;;;;;;;3.08;2.13;;;11.10;99.90;;;;;;5072470;28;20025;-76
2022/07/12 02:46:04;;;;;;;4.40;2.22;;;11.10;99.90;;;;;;5072643;28;20029;-76
2022/07/12 02:48:30;;;;;;;2.20;2.03;;;11.00;99.90;;;;;;5073743;28;20051;-76
2022/07/12 02:50:56;;;;;;;3.55;2.60;;;11.00;99.90;;;;;;5073653;28;20035;-76
2022/07/12 02:53:22;;;;;;;3.00;2.40;;;11.00;99.90;;;;;;5073526;28;20021;-76
2022/07/12 02:55:48;;;;;;;4.60;2.75;;;11.00;99.90;;;;;;5073646;28;20035;-76
2022/07/12 02:58:14;;;;;;;4.57;2.03;;;10.90;99.90;;;;;;5072319;28;20031;-76
2022/07/12 03:00:40;;;;;;;3.03;2.47;;;10.90;99.90;;;;;;5073460;28;20044;-76
2022/07/12 03:03:08;;;;;;;2.85;2.50;;;10.90;99.90;;;;;;5073597;28;20043;-76
2022/07/12 03:05:35;;;;;;;3.73;2.50;;;10.90;99.90;;;;;;5073363;28;20388;-76
2022/07/12 03:08:02;;;;;;;5.40;2.53;;;10.90;99.90;;;;;;5073528;28;20021;-76
2022/07/12 03:10:28;;;;;;;2.78;2.10;;;10.80;99.90;;;;;;5073717;28;20037;-76
2022/07/12 03:12:53;;;;;;;4.55;2.80;;;10.80;99.90;;;;;;5073238;28;20037;-76
2022/07/12 03:15:19;;;;;;;7.68;2.58;;;10.80;99.90;;;;;;5073148;28;20023;-76
2022/07/12 03:17:44;;;;;;;3.33;2.40;;;10.80;99.90;;;;;;5073450;28;20023;-76
2022/07/12 03:20:11;;;;;;;2.90;2.67;;;10.80;99.90;;;;;;5073393;28;20027;-76
2022/07/12 03:22:48;;;;;;;5.75;2.55;;;10.80;99.90;;;;;;5073304;28;20124;-76
2022/07/12 03:25:14;;;;;;;3.58;2.60;;;10.80;99.90;;;;;;5073415;28;20031;-76
2022/07/12 03:27:40;;;;;;;4.78;2.58;;;10.80;99.90;;;;;;5073331;28;20032;-76
2022/07/12 03:30:08;;;;;;;3.08;2.53;;;10.80;99.90;;;;;;5072985;28;20025;-76
2022/07/12 03:32:34;;;;;;;3.63;2.70;;;10.80;99.90;;;;;;5071980;28;20036;-76
2022/07/12 03:34:59;;;;;;;3.10;2.05;;;10.90;99.90;;;;;;5073245;28;20028;-76
2022/07/12 03:37:25;;;;;;;5.93;2.25;;;10.90;99.90;;;;;;5073796;28;20461;-76
2022/07/12 03:39:50;;;;;;;3.35;2.00;;;11.00;99.90;;;;;;5073299;28;20073;-76
2022/07/12 03:42:16;;;;;;;2.53;2.30;;;11.00;99.90;;;;;;5071901;28;20033;-76
2022/07/12 03:44:42;;;;;;;3.90;2.00;;;11.10;99.90;;;;;;5073134;28;20430;-76
2022/07/12 03:47:07;;;;;;;2.28;2.08;;;11.20;99.90;;;;;;5074651;28;20051;-76
2022/07/12 03:49:33;;;;;;;4.22;2.00;;;11.30;99.90;;;;;;5076757;28;20074;-76
2022/07/12 03:51:59;;;;;;;3.10;1.85;;;11.30;99.90;;;;;;5076645;28;20028;-76
2022/07/12 03:54:24;;;;;;;2.90;2.55;;;11.40;99.90;;;;;;5076791;28;20105;-76
2022/07/12 03:59:34;;;;;;;1.70;1.60;;;11.60;99.90;;;;;;5076480;28;20032;-76
2022/07/12 04:02:01;;;;;;;9.35;2.15;;;11.70;99.90;;;;;;5074759;28;20040;-76
2022/07/12 04:04:28;;;;;;;4.85;1.60;;;11.70;99.90;;;;;;5076166;28;20488;-76
2022/07/12 04:06:54;;;;;;;1.90;1.80;;;11.80;99.90;;;;;;5076400;28;20146;-76
2022/07/12 04:09:20;;;;;;;3.38;2.13;;;11.80;99.90;;;;;;5074844;28;20039;-76
2022/07/12 04:11:46;;;;;;;4.82;2.03;;;11.80;99.90;;;;;;5076387;28;20040;-76
2022/07/12 04:14:12;;;;;;;2.20;1.95;;;11.90;99.90;;;;;;5075983;28;20381;-76
2022/07/12 04:16:37;;;;;;;2.60;2.22;;;11.90;99.90;;;;;;5075181;28;20028;-76
2022/07/12 04:19:04;;;;;;;8.77;2.13;;;11.90;99.90;;;;;;5074624;28;20025;-76
2022/07/12 04:21:33;;;;;;;1.73;1.63;;;12.00;99.90;;;;;;5074921;28;20082;-76
2022/07/12 04:23:59;;;;;;;1.85;1.75;;;12.00;99.90;;;;;;5075863;28;20484;-76
2022/07/12 04:26:24;;;;;;;2.25;2.00;;;12.10;99.90;;;;;;5076098;28;20032;-76
2022/07/12 04:28:50;;;;;;;5.93;1.75;;;12.10;99.90;;;;;;5074725;28;20029;-76
2022/07/12 04:31:16;;;;;;;3.58;1.88;;;12.20;99.90;;;;;;5074973;28;20111;-76
2022/07/12 04:33:41;;;;;;;3.05;1.80;;;12.30;99.90;;;;;;5074630;28;20035;-79
2022/07/12 04:36:07;;;;;;;3.67;1.98;;;12.30;99.90;;;;;;5074737;28;20028;-79
2022/07/12 04:38:33;;;;;;;8.38;3.00;;;12.40;99.90;;;;;;5076187;28;20090;-77
2022/07/12 04:40:58;;;;;;;4.65;1.90;;;12.40;99.90;;;;;;5075125;28;20371;-76
2022/07/12 04:43:24;;;;;;;2.90;1.70;;;12.50;99.90;;;;;;5075978;28;20041;-80
2022/07/12 04:45:50;;;;;;;4.53;1.70;;;12.60;99.90;;;;;;5075750;28;20028;-78
2022/07/12 04:48:16;;;;;;;2.08;1.75;;;12.60;99.90;;;;;;5075367;28;20029;-77
2022/07/12 04:50:42;;;;;;;1.70;1.60;;;12.70;99.90;;;;;;5074434;28;20021;-79
2022/07/12 04:53:08;;;;;;;4.13;2.05;;;12.80;99.90;;;;;;5074319;28;20036;-81
2022/07/12 04:55:34;;;;;;;3.83;1.52;;;12.80;99.90;;;;;;5074158;28;20024;-77
2022/07/12 04:58:00;;;;;;;5.15;1.60;;;12.90;99.90;;;;;;5073136;28;20024;-77
2022/07/12 05:00:26;;;;;;;6.60;2.15;;;13.00;99.90;;;;;;5075200;28;20055;-78
2022/07/12 05:02:51;;;;;;;3.00;1.73;;;13.10;99.90;;;;;;5075504;28;20050;-76
2022/07/12 05:05:17;;;;;;;1.73;1.60;;;13.20;99.90;;;;;;5075384;28;20040;-75
2022/07/12 05:07:43;;;;;;;4.90;1.67;;;13.30;99.90;;;;;;5073935;28;20163;-75
2022/07/12 05:10:08;;;;;;;2.47;1.65;;;13.40;99.90;;;;;;5075201;28;20456;-77
2022/07/12 05:12:35;;;;;;;2.20;1.58;;;13.50;99.90;;;;;;5075618;28;20396;-76
2022/07/12 05:15:01;;;;;;;1.38;1.27;;;13.60;99.90;;;;;;5074493;28;20021;-76
2022/07/12 05:17:27;;;;;;;4.43;1.70;;;13.70;99.90;;;;;;5075323;28;20484;-78
2022/07/12 05:19:52;;;;;;;1.58;1.20;;;13.90;99.90;;;;;;5075210;28;20035;-77
2022/07/12 05:22:18;;;;;;;1.48;1.38;;;14.00;99.90;;;;;;5074945;28;20125;-77
2022/07/12 05:24:44;;;;;;;2.45;1.48;;;14.10;99.90;;;;;;5075291;28;20024;-79
2022/07/12 05:27:09;;;;;;;3.90;1.30;;;14.20;99.90;;;;;;5074530;28;20029;-79
2022/07/12 05:29:35;;;;;;;2.15;1.23;;;14.40;99.90;;;;;;5074338;28;20024;-79
2022/07/12 05:32:01;;;;;;;1.67;1.30;;;14.50;99.90;;;;;;5074667;28;20024;-79
2022/07/12 05:34:27;;;;;;;2.03;1.90;;;14.60;99.90;;;;;;5074544;28;20056;-79
2022/07/12 05:36:53;;;;;;;1.25;0.93;;;14.60;99.90;;;;;;5074741;28;20533;-78
2022/07/12 05:39:18;;;;;;;3.75;1.30;;;14.70;99.90;;;;;;5073106;28;20024;-79
2022/07/12 05:41:44;;;;;;;1.60;1.50;;;14.80;99.90;;;;;;5073166;28;20046;-79
2022/07/12 05:44:10;;;;;;;4.35;1.40;;;14.90;99.90;;;;;;5074576;28;20037;-76
2022/07/12 05:46:37;;;;;;;1.50;1.23;;;15.00;99.90;;;;;;5073130;28;20020;-81
2022/07/12 05:49:03;;;;;;;2.83;1.80;;;15.00;99.90;;;;;;5074437;28;20020;-79
2022/07/12 05:54:13;;;;;;;1.63;1.08;;;15.40;99.90;;;;;;5074478;28;20035;-80
2022/07/12 05:56:38;;;;;;;2.25;1.20;;;15.60;99.90;;;;;;5074087;28;20384;-82
2022/07/12 05:59:04;;;;;;;1.75;1.48;;;15.70;99.90;;;;;;5073072;28;20025;-79
2022/07/12 06:01:30;;;;;;;3.08;1.42;;;15.90;99.90;;;;;;5072702;28;20045;-81
2022/07/12 06:03:55;;;;;;;1.50;1.40;;;16.10;99.90;;;;;;5074201;28;20156;-80
2022/07/12 06:06:21;;;;;;;4.03;1.10;;;16.30;99.90;;;;;;5074199;28;20103;-66
2022/07/12 06:08:46;;;;;;;4.68;1.55;;;16.60;99.90;;;;;;5073510;28;20033;-66
2022/07/12 06:11:12;;;;;;;1.88;1.30;;;16.90;99.90;;;;;;5074068;28;20029;-66
2022/07/12 06:13:38;;;;;;;2.78;0.80;;;17.10;99.90;;;;;;5073898;28;20056;-81
2022/07/12 06:16:05;;;;;;;0.95;0.80;;;17.30;99.90;;;;;;5072768;28;20024;-81
2022/07/12 06:18:34;;;;;;;3.70;1.00;;;17.50;99.90;;;;;;5074094;28;20022;-81
2022/07/12 06:21:00;;;;;;;2.83;0.98;;;17.90;99.90;;;;;;5072652;28;20024;-81
2022/07/12 06:23:26;;;;;;;2.30;0.70;;;18.50;99.90;;;;;;5073718;28;20049;-81
2022/07/12 06:25:51;;;;;;;3.85;0.60;;;19.10;99.90;;;;;;5072590;28;20064;-82
2022/07/12 06:28:17;;;;;;;0.93;0.57;;;19.50;99.90;;;;;;5074043;28;20465;-81
2022/07/12 06:30:43;;;;;;;1.42;0.50;;;20.00;99.80;;;;;;5072979;28;20024;-82
2022/07/12 06:33:08;;;;;;;0.68;0.50;;;20.30;98.80;;;;;;5073818;28;20028;-81
2022/07/12 06:35:34;;;;;;;4.60;0.50;;;20.50;95.50;;;;;;5073755;28;20063;-82
2022/07/12 06:38:00;;;;;;;1.52;0.60;;;20.60;94.00;;;;;;5072334;28;20021;-82
2022/07/12 06:40:25;;;;;;;0.50;0.50;;;20.80;93.20;;;;;;5072634;28;20028;-82
2022/07/12 06:42:51;;;;;;;0.82;0.50;;;21.00;92.90;;;;;;5072269;28;20103;-82
2022/07/12 06:45:17;;;;;;;2.47;0.57;;;21.20;92.90;;;;;;5074015;28;20029;-82
2022/07/12 06:47:43;;;;;;;0.93;0.50;;;21.60;91.80;;;;;;5073688;28;20021;-82
2022/07/12 06:50:09;;;;;;;0.70;0.45;;;21.50;88.20;;;;;;5073980;28;20027;-82
2022/07/12 06:52:35;;;;;;;0.40;0.40;;;21.40;90.20;;;;;;5073914;28;20043;-82
2022/07/12 06:55:01;;;;;;;2.88;0.52;;;21.40;89.80;;;;;;5072731;28;20475;-82
2022/07/12 06:57:27;;;;;;;0.75;0.43;;;21.40;90.30;;;;;;5073597;28;20047;-82
2022/07/12 06:59:53;;;;;;;0.90;0.50;;;21.60;88.30;;;;;;5072709;28;20029;-82
2022/07/12 07:02:18;;;;;;;1.95;0.40;;;21.70;87.30;;;;;;5074181;28;20166;-82
2022/07/12 07:04:44;;;;;;;1.45;0.40;;;21.80;84.80;;;;;;5073890;28;20453;-82
2022/07/12 07:07:09;;;;;;;0.57;0.40;;;22.00;84.70;;;;;;5072215;28;20025;-82
2022/07/12 07:09:35;;;;;;;2.08;0.50;;;22.30;86.20;;;;;;5073836;28;20024;-83
2022/07/12 07:12:02;;;;;;;1.00;0.40;;;22.70;82.20;;;;;;5073418;28;20024;-82
2022/07/12 07:14:27;;;;;;;1.85;0.30;;;23.00;76.20;;;;;;5072035;28;20173;-82
2022/07/12 07:16:53;;;;;;;2.78;0.60;;;23.10;74.60;;;;;;5071930;28;20111;-82
2022/07/12 07:19:19;;;;;;;2.08;0.30;;;22.60;72.60;;;;;;5072052;28;20025;-82
2022/07/12 07:21:45;;;;;;;1.10;0.40;;;22.10;72.40;;;;;;5074430;28;20042;-82
2022/07/12 07:24:10;;;;;;;1.70;0.45;;;22.00;74.60;;;;;;5076083;28;20063;-82
2022/07/12 07:26:36;;;;;;;0.80;0.50;;;21.70;77.30;;;;;;5076092;28;20025;-82
2022/07/12 07:31:46;;;;;;;2.35;0.40;;;21.70;78.50;;;;;;5077356;28;20038;-82
2022/07/12 07:34:12;;;;;;;1.60;0.50;;;21.80;78.50;;;;;;5077149;28;20028;-82
2022/07/12 07:36:37;;;;;;;0.77;0.40;;;21.90;76.60;;;;;;5075929;28;20027;-82
2022/07/12 07:39:03;;;;;;;2.15;0.40;;;21.80;76.80;;;;;;5077204;28;20025;-82
2022/07/12 07:41:29;;;;;;;2.00;0.40;;;21.70;77.60;;;;;;5075626;28;20028;-82
2022/07/12 07:43:54;;;;;;;0.90;0.38;;;21.70;76.20;;;;;;5077290;28;20505;-82
2022/07/12 07:46:20;;;;;;;2.75;0.60;;;21.60;76.70;;;;;;5075803;28;20024;-82
2022/07/12 07:48:46;;;;;;;1.40;0.55;;;21.70;75.40;;;;;;5076923;28;20506;-82
2022/07/12 07:51:11;;;;;;;2.15;0.50;;;21.90;74.10;;;;;;5076744;28;20027;-80
2022/07/12 07:53:37;;;;;;;1.48;0.60;;;22.00;72.20;;;;;;5076852;28;20028;-81
2022/07/12 07:56:03;;;;;;;3.53;0.55;;;22.40;71.10;;;;;;5076370;28;20465;-82
2022/07/12 07:58:28;;;;;;;1.20;0.57;;;22.90;69.50;;;;;;5075369;28;20058;-82
2022/07/12 08:00:54;;;;;;;2.55;0.55;;;23.20;66.60;;;;;;5076267;28;20056;-82
2022/07/12 08:03:20;;;;;;;1.30;0.40;;;23.20;65.60;;;;;;5076614;28;20039;-82
2022/07/12 08:05:47;;;;;;;0.93;0.35;;;23.20;64.80;;;;;;5075247;28;20029;-82
2022/07/12 08:08:12;;;;;;;0.82;0.50;;;23.70;65.40;;;;;;5076642;28;20025;-82
2022/07/12 08:10:38;;;;;;;1.30;0.38;;;24.20;60.50;;;;;;5075753;28;20027;-82
2022/07/12 08:13:04;;;;;;;5.20;0.40;;;24.60;59.90;;;;;;5076668;28;20105;-82
2022/07/12 08:15:30;;;;;;;1.17;0.50;;;24.60;58.40;;;;;;5076379;28;20028;-82
2022/07/12 08:17:56;;;;;;;0.32;0.20;;;24.50;57.40;;;;;;5076568;28;20067;-82
2022/07/12 08:20:22;;;;;;;3.67;0.55;;;24.60;56.70;;;;;;5075786;28;20033;-82
2022/07/12 08:22:48;;;;;;;1.00;0.32;;;24.50;56.20;;;;;;5076342;28;20032;-81
2022/07/12 08:25:14;;;;;;;4.95;0.50;;;24.20;55.80;;;;;;5076400;28;20419;-81
2022/07/12 08:27:40;;;;;;;2.55;0.28;;;24.30;55.40;;;;;;5076112;28;20021;-81
2022/07/12 08:30:06;;;;;;;2.78;0.45;;;24.60;56.60;;;;;;5076343;28;20032;-82
2022/07/12 08:32:32;;;;;;;2.88;0.52;;;25.30;55.30;;;;;;5076168;28;20028;-81
2022/07/12 08:34:58;;;;;;;2.45;0.50;;;25.50;52.00;;;;;;5074688;28;20106;-82
2022/07/12 08:37:23;;;;;;;3.83;0.38;;;25.60;53.10;;;;;;5076078;28;20098;-82
2022/07/12 08:39:49;;;;;;;1.95;0.35;;;26.00;51.00;;;;;;5074586;28;20514;-82
2022/07/12 08:42:16;;;;;;;2.20;0.20;;;26.30;51.80;;;;;;5075531;28;20028;-81
2022/07/12 08:44:42;;;;;;;0.73;0.20;;;26.90;49.20;;;;;;5075877;28;20029;-82
2022/07/12 08:47:09;;;;;;;1.42;0.43;;;27.10;47.60;;;;;;5076089;28;20033;-82
2022/07/12 08:49:35;;;;;;;0.40;0.15;;;26.70;46.30;;;;;;5074453;28;20109;-82
2022/07/12 08:52:25;;;;;;;1.27;0.20;;;26.30;46.80;;;;;;5074240;28;20456;-82
2022/07/12 08:54:51;;;;;;;1.13;0.35;;;26.40;48.40;;;;;;5075803;28;20017;-82
2022/07/12 08:57:30;;;;;;;0.85;0.30;;;26.90;48.20;;;;;;5074682;28;20028;-82
2022/07/12 08:59:59;;;;;;;;;;;27.50;45.30;;;;;;5074646;28;20024;-81
2022/07/12 09:02:26;;;;;;;0.85;0.13;;;27.10;45.00;;;;;;5054995;28;19924;-81
2022/07/12 09:05:08;;;;;;;0.43;0.13;;;26.90;46.60;;;;;;5054191;28;20384;-82
2022/07/12 09:07:37;;;;;;;1.85;0.30;;;26.70;45.40;;;;;;5054371;28;20035;-82
2022/07/12 09:10:04;;;;;;;0.52;0.20;;;26.30;45.60;;;;;;5055011;28;20566;-81
2022/07/12 09:12:30;;;;;;;0.50;0.20;;;25.90;45.20;;;;;;5055512;28;20086;-81
2022/07/12 09:15:19;;;;;;;0.40;0.13;;;25.60;46.30;;;;;;5055205;28;20422;-81
2022/07/12 09:18:00;;;;;;;1.13;0.20;;;25.50;46.90;;;;;;5054141;28;20051;-81
2022/07/12 09:20:31;;;;;;;1.25;0.20;;;25.50;45.70;;;;;;5055289;28;20465;-82
2022/07/12 09:22:59;;;;;;;1.05;0.20;;;25.80;46.70;;;;;;5054982;28;20032;-81
2022/07/12 09:25:25;;;;;;;1.30;0.13;;;26.50;46.20;;;;;;5055172;28;20025;-81
2022/07/12 09:28:00;;;;;;;1.35;0.20;;;27.50;45.00;;;;;;5054020;28;20083;-82
2022/07/12 09:30:27;;;;;;;0.55;0.20;;;28.40;42.10;;;;;;5055085;28;20059;-82
2022/07/12 09:38:27;;;;;;;0.88;0.30;;;28.20;41.30;;;;;;5054925;28;20067;-80
2022/07/12 09:40:55;;;;;;;0.52;0.20;;;27.80;41.40;;;;;;5054832;28;20029;-83
2022/07/12 09:43:22;;;;;;;5.30;0.20;;;28.00;41.80;;;;;;5052847;28;20400;-82
2022/07/12 09:45:48;;;;;;;0.20;0.13;;;28.30;41.80;;;;;;5054674;28;20460;-82
2022/07/12 09:48:15;;;;;;;0.65;0.10;;;28.30;40.60;;;;;;5053281;28;20051;-81
2022/07/12 09:50:45;;;;;;;0.20;0.15;;;28.20;40.70;;;;;;5054576;28;20039;-81
2022/07/12 09:53:17;;;;;;;0.95;0.10;;;27.20;42.50;;;;;;5054451;28;20029;-80
2022/07/12 09:55:44;;;;;;;0.68;0.35;;;26.40;43.80;;;;;;5053157;28;20132;-80
2022/07/12 09:58:13;;;;;;;2.13;0.28;;;25.70;44.00;;;;;;5054369;28;20036;-80
2022/07/12 10:00:39;;;;;;;2.05;0.20;;;25.20;45.10;;;;;;5059620;28;20130;-80
2022/07/12 10:03:06;;;;;;;0.65;0.13;;;25.90;45.50;;;;;;5072615;28;20132;-81
2022/07/12 10:05:34;;;;;;;1.13;0.40;;;27.20;42.30;;;;;;5074280;28;20074;-81
2022/07/12 10:08:01;;;;;;;3.08;0.35;;;28.20;41.60;;;;;;5074300;28;20036;-81
2022/07/12 10:10:28;;;;;;;0.98;0.22;;;28.80;41.20;;;;;;5073325;28;20063;-81
2022/07/12 10:12:54;;;;;;;1.23;0.40;;;29.30;38.90;;;;;;5074164;28;20029;-82
2022/07/12 10:15:25;;;;;;;0.32;0.32;;;29.10;37.90;;;;;;5072711;28;20479;-81
2022/07/12 10:17:56;;;;;;;0.43;0.10;;;29.20;39.00;;;;;;5073485;28;20107;-82
2022/07/12 10:20:23;;;;;;;2.80;0.40;;;28.80;38.30;;;;;;5074165;28;20029;-81
2022/07/12 10:22:53;;;;;;;1.08;0.17;;;28.20;39.50;;;;;;5072635;28;20032;-80
2022/07/12 10:25:25;;;;;;;1.02;0.17;;;26.80;40.00;;;;;;5072720;28;20025;-80
2022/07/12 10:27:51;;;;;;;2.95;0.63;;;25.80;42.50;;;;;;5073753;28;20048;-79
2022/07/12 10:30:19;;;;;;;0.80;0.20;;;25.60;42.90;;;;;;5072824;28;20113;-80
2022/07/12 10:32:46;;;;;;;0.57;0.20;;;25.40;43.50;;;;;;5072553;28;20146;-79
2022/07/12 10:35:15;;;;;;;1.75;0.30;;;25.10;43.90;;;;;;5072669;28;20064;-81
2022/07/12 10:38:01;;;;;;;2.35;0.30;;;25.10;43.70;;;;;;5072553;28;20021;-80
2022/07/12 10:40:27;;;;;;;5.20;0.52;;;25.00;43.30;;;;;;5072552;28;20112;-82
2022/07/12 10:43:04;;;;;;;1.05;0.20;;;24.70;43.60;;;;;;5072671;28;20119;-81
2022/07/12 10:45:32;;;;;;;1.40;0.22;;;24.70;44.50;;;;;;5073788;28;20025;-80
2022/07/12 10:48:13;;;;;;;0.70;0.30;;;24.60;45.00;;;;;;5073337;28;20029;-81
2022/07/12 10:50:45;;;;;;;1.58;0.85;;;24.50;45.90;;;;;;5072674;28;20032;-82
2022/07/12 10:53:38;;;;;;;1.65;0.32;;;24.70;45.40;;;;;;5072585;28;20031;-81
2022/07/12 10:56:04;;;;;;;2.53;0.40;;;25.30;45.80;;;;;;5074261;28;20477;-81
2022/07/12 10:58:31;;;;;;;2.63;0.57;;;26.50;43.80;;;;;;5076610;28;20046;-81
2022/07/12 11:00:58;;;;;;;0.73;0.20;;;27.80;42.50;;;;;;5076332;28;20052;-81
2022/07/12 11:03:23;;;;;;;0.82;0.20;;;28.10;39.40;;;;;;5076379;28;20051;-81
2022/07/12 11:05:49;;;;;;;1.02;0.20;;;28.00;40.20;;;;;;5076630;28;20353;-80
2022/07/12 11:08:15;;;;;;;1.33;0.35;;;27.60;40.20;;;;;;5076387;28;20380;-82
2022/07/12 11:10:55;;;;;;;0.80;0.30;;;27.10;40.90;;;;;;5076419;28;20028;-81
2022/07/12 11:13:23;;;;;;;0.50;0.30;;;26.60;41.90;;;;;;5077665;28;20101;-82
2022/07/12 11:15:56;;;;;;;2.55;0.20;;;26.20;42.50;;;;;;5076259;28;20033;-80
2022/07/12 11:18:33;;;;;;;2.17;0.30;;;25.80;43.20;;;;;;5077685;28;20372;-82
2022/07/12 11:21:00;;;;;;;0.82;0.30;;;25.60;43.90;;;;;;5077421;28;20020;-76
2022/07/12 11:23:26;;;;;;;4.82;0.90;;;25.50;44.20;;;;;;5076977;28;20504;-77
2022/07/12 11:25:56;;;;;;;1.00;0.25;;;25.50;44.30;;;;;;5077252;28;20020;-78
2022/07/12 11:28:26;;;;;;;0.32;0.10;;;25.50;44.60;;;;;;5075515;28;20020;-78
2022/07/12 11:30:52;;;;;;;1.25;0.13;;;25.50;43.80;;;;;;5075732;28;20024;-78
2022/07/12 11:33:18;;;;;;;9.27;0.50;;;25.70;43.20;;;;;;5077187;28;20089;-81
2022/07/12 11:35:45;;;;;;;5.70;0.60;;;26.00;44.30;;;;;;5077189;28;20033;-81
2022/07/12 11:38:11;;;;;;;1.75;0.40;;;26.00;43.10;;;;;;5077343;28;20024;-82
2022/07/12 11:40:37;;;;;;;1.80;0.30;;;25.90;43.70;;;;;;5077044;28;20388;-81
2022/07/12 11:43:04;;;;;;;1.65;0.30;;;26.00;44.40;;;;;;5075723;28;20032;-82
2022/07/12 11:45:34;;;;;;;0.43;0.30;;;26.00;42.80;;;;;;5076057;28;20035;-83
2022/07/12 11:48:01;;;;;;;1.38;0.38;;;26.70;42.70;;;;;;5076982;28;20025;-82
2022/07/12 11:50:29;;;;;;;1.98;0.50;;;27.80;40.70;;;;;;5075822;28;20379;-82
2022/07/12 11:52:56;;;;;;;2.03;0.35;;;28.00;40.10;;;;;;5077056;28;20081;-82
2022/07/12 11:55:22;;;;;;;1.30;0.25;;;28.20;41.10;;;;;;5075548;28;20028;-73
2022/07/12 11:57:49;;;;;;;1.52;0.50;;;27.90;41.30;;;;;;5076482;28;20035;-80
2022/07/12 12:00:26;;;;;;;2.00;0.35;;;27.80;41.90;;;;;;5076569;28;20039;-85
2022/07/12 12:02:55;;;;;;;1.98;0.32;;;27.90;41.30;;;;;;5075309;28;20028;-82
2022/07/12 12:05:21;;;;;;;4.88;0.68;;;28.10;40.90;;;;;;5075399;28;20021;-82
2022/07/12 12:07:47;;;;;;;1.75;0.50;;;28.50;40.80;;;;;;5075995;28;20024;-68
2022/07/12 12:10:13;;;;;;;3.85;0.70;;;28.80;41.90;;;;;;5076318;28;20052;-68
2022/07/12 12:12:52;;;;;;;1.10;0.40;;;29.10;41.70;;;;;;5076367;28;20035;-67
2022/07/12 12:15:18;;;;;;;;;;;29.30;40.40;;;;;;5076551;28;20032;-68
2022/07/12 12:17:55;;;;;;;2.58;0.20;;;28.60;41.90;;;;;;5076360;28;19957;-68
2022/07/12 12:20:23;;;;;;;0.45;0.20;;;28.20;38.60;;;;;;5076285;28;20037;-67
2022/07/12 12:22:54;;;;;;;1.85;0.57;;;27.60;39.80;;;;;;5075847;28;20366;-68
2022/07/12 12:25:20;;;;;;;1.27;0.20;;;27.50;40.30;;;;;;5075002;28;20046;-68
2022/07/12 12:28:00;;;;;;;3.55;0.45;;;27.30;40.60;;;;;;5076120;28;20032;-68
2022/07/12 12:30:27;;;;;;;0.32;0.25;;;26.70;41.20;;;;;;5075789;28;20403;-67
2022/07/12 12:32:55;;;;;;;0.77;0.20;;;26.30;42.00;;;;;;5076167;28;20111;-68
2022/07/12 12:35:37;;;;;;;2.25;0.30;;;26.00;42.00;;;;;;5076019;28;20422;-71
2022/07/12 12:38:15;;;;;;;4.70;0.35;;;25.90;42.00;;;;;;5076077;28;20422;-72
2022/07/12 12:40:50;;;;;;;1.65;0.40;;;25.80;42.80;;;;;;5075862;28;20452;-71
2022/07/12 12:43:20;;;;;;;0.93;0.45;;;25.90;43.30;;;;;;5075674;28;20039;-71
2022/07/12 12:45:54;;;;;;;1.40;0.30;;;26.10;43.40;;;;;;5074456;28;20052;-72
2022/07/12 12:48:25;;;;;;;0.57;0.30;;;26.20;42.30;;;;;;5075923;28;20039;-73
2022/07/12 12:50:53;;;;;;;0.95;0.20;;;25.90;41.80;;;;;;5075865;28;20028;-73
2022/07/12 12:53:23;;;;;;;1.15;0.30;;;25.40;42.90;;;;;;5075827;28;20089;-71
2022/07/12 12:55:54;;;;;;;0.52;0.22;;;25.10;44.10;;;;;;5075651;28;20024;-72
2022/07/12 12:58:21;;;;;;;1.27;0.20;;;24.80;44.30;;;;;;5075514;28;20029;-73
2022/07/12 13:00:49;;;;;;;1.70;0.38;;;24.60;44.70;;;;;;5075619;28;20055;-73
2022/07/12 13:03:19;;;;;;;1.70;0.40;;;24.40;44.80;;;;;;5075419;28;20036;-73